createdAt,value
2018-02-19T00:02:07.554Z,29.63
2018-02-19T00:04:35.075Z,27.90
2018-02-19T00:07:02.595Z,28.17
2018-02-19T00:09:30.086Z,28.93
2018-02-19T00:11:57.593Z,32.50
2018-02-19T00:14:25.255Z,26.40
2018-02-19T00:16:52.750Z,26.47
2018-02-19T00:19:20.252Z,28.40
2018-02-19T00:21:47.753Z,29.70
2018-02-19T00:24:15.337Z,27.87
2018-02-19T00:26:42.857Z,26.33
2018-02-19T00:29:10.376Z,27.63
2018-02-19T00:31:37.941Z,27.13
2018-02-19T00:34:05.484Z,26.90
2018-02-19T00:36:32.993Z,27.30
2018-02-19T00:39:00.522Z,28.87
2018-02-19T00:41:28.024Z,28.87
2018-02-19T00:43:55.539Z,29.60
2018-02-19T00:46:23.023Z,27.63
2018-02-19T00:48:50.554Z,31.50
2018-02-19T00:51:18.055Z,29.27
2018-02-19T00:53:47.087Z,28.03
2018-02-19T00:56:14.624Z,28.30
2018-02-19T00:58:42.902Z,27.83
2018-02-19T01:01:10.449Z,28.13
2018-02-19T01:03:37.944Z,28.73
2018-02-19T01:06:06.214Z,27.37
2018-02-19T01:08:33.767Z,28.93
2018-02-19T01:11:01.336Z,29.83
2018-02-19T01:13:29.615Z,30.03
2018-02-19T01:15:57.950Z,28.50
2018-02-19T01:18:25.456Z,27.23
2018-02-19T01:20:53.715Z,28.40
2018-02-19T01:23:21.224Z,29.23
2018-02-19T01:25:48.731Z,28.97
2018-02-19T01:28:16.242Z,28.10
2018-02-19T01:30:43.735Z,29.80
2018-02-19T01:33:12.500Z,31.77
2018-02-19T01:35:39.985Z,29.80
2018-02-19T01:38:07.505Z,30.00
2018-02-19T01:40:35.001Z,31.90
2018-02-19T01:43:02.525Z,28.17
2018-02-19T01:45:30.044Z,28.00
2018-02-19T01:47:57.562Z,27.93
2018-02-19T01:50:25.087Z,30.13
2018-02-19T01:52:52.602Z,28.23
2018-02-19T01:55:20.144Z,26.87
2018-02-19T01:57:47.640Z,27.53
2018-02-19T02:00:15.204Z,28.63
2018-02-19T02:02:42.728Z,29.50
2018-02-19T02:05:10.220Z,27.83
2018-02-19T02:07:38.509Z,30.40
2018-02-19T02:10:06.010Z,27.13
2018-02-19T02:12:33.529Z,31.70
2018-02-19T02:15:01.818Z,28.07
2018-02-19T02:17:29.348Z,29.20
2018-02-19T02:19:56.856Z,28.80
2018-02-19T02:22:24.361Z,27.43
2018-02-19T02:24:51.900Z,28.00
2018-02-19T02:27:19.449Z,29.77
2018-02-19T02:29:46.957Z,28.80
2018-02-19T02:32:14.454Z,29.27
2018-02-19T02:34:41.955Z,29.77
2018-02-19T02:37:09.460Z,28.60
2018-02-19T02:39:36.979Z,34.27
2018-02-19T02:42:04.531Z,30.40
2018-02-19T02:44:32.034Z,29.67
2018-02-19T02:47:00.310Z,29.47
2018-02-19T02:49:27.797Z,33.53
2018-02-19T02:51:55.299Z,30.67
2018-02-19T02:54:22.840Z,30.93
2018-02-19T02:56:50.353Z,32.37
2018-02-19T02:59:17.899Z,31.90
2018-02-19T03:01:45.430Z,33.27
2018-02-19T03:04:12.945Z,33.07
2018-02-19T03:06:40.436Z,36.00
2018-02-19T03:09:07.953Z,30.77
2018-02-19T03:11:36.223Z,31.57
2018-02-19T03:14:03.757Z,28.77
2018-02-19T03:16:31.258Z,32.77
2018-02-19T03:18:58.816Z,32.13
2018-02-19T03:21:26.334Z,32.43
2018-02-19T03:23:53.859Z,32.27
2018-02-19T03:26:21.364Z,32.40
2018-02-19T03:28:48.880Z,34.07
2018-02-19T03:31:16.388Z,32.47
2018-02-19T03:33:43.893Z,29.97
2018-02-19T03:36:11.412Z,31.10
2018-02-19T03:38:39.694Z,34.10
2018-02-19T03:41:07.212Z,31.33
2018-02-19T03:43:34.727Z,32.37
2018-02-19T03:46:02.248Z,31.10
2018-02-19T03:48:29.804Z,31.03
2018-02-19T03:50:57.318Z,31.73
2018-02-19T03:53:24.836Z,33.50
2018-02-19T03:55:52.367Z,34.17
2018-02-19T03:58:19.895Z,35.47
2018-02-19T04:00:47.417Z,36.07
2018-02-19T04:03:14.926Z,35.13
2018-02-19T04:05:42.441Z,31.97
2018-02-19T04:08:09.934Z,34.67
2018-02-19T04:10:37.437Z,35.10
2018-02-19T04:13:04.966Z,40.23
2018-02-19T04:15:32.475Z,37.13
2018-02-19T04:17:59.971Z,36.83
2018-02-19T04:20:28.245Z,36.50
2018-02-19T04:22:55.749Z,34.60
2018-02-19T04:25:23.286Z,36.40
2018-02-19T04:27:50.808Z,38.93
2018-02-19T04:30:19.097Z,39.47
2018-02-19T04:32:46.653Z,39.77
2018-02-19T04:35:14.912Z,39.53
2018-02-19T04:37:43.185Z,38.87
2018-02-19T04:40:10.763Z,43.97
2018-02-19T04:42:38.287Z,36.60
2018-02-19T04:45:24.233Z,41.67
2018-02-19T04:47:51.764Z,39.87
2018-02-19T04:50:19.256Z,39.67
2018-02-19T04:52:46.823Z,40.67
2018-02-19T04:55:14.315Z,38.17
2018-02-19T04:57:41.856Z,37.97
2018-02-19T05:00:09.376Z,41.43
2018-02-19T05:02:37.678Z,39.20
2018-02-19T05:05:05.969Z,40.33
2018-02-19T05:07:33.473Z,41.67
2018-02-19T05:10:00.979Z,38.93
2018-02-19T05:12:28.529Z,42.37
2018-02-19T05:14:56.042Z,41.07
2018-02-19T05:17:23.581Z,44.40
2018-02-19T05:19:51.109Z,41.20
2018-02-19T05:22:19.388Z,39.80
2018-02-19T05:24:46.877Z,45.17
2018-02-19T05:27:14.390Z,43.17
2018-02-19T05:29:42.678Z,45.53
2018-02-19T05:32:10.187Z,46.10
2018-02-19T05:34:37.685Z,41.90
2018-02-19T05:37:05.244Z,43.07
2018-02-19T05:39:32.802Z,44.73
2018-02-19T05:42:00.327Z,43.90
2018-02-19T05:44:27.849Z,45.07
2018-02-19T05:46:55.362Z,44.80
2018-02-19T05:49:22.864Z,47.07
2018-02-19T05:51:50.369Z,43.27
2018-02-19T05:54:17.909Z,46.27
2018-02-19T05:56:45.444Z,48.13
2018-02-19T05:59:13.729Z,45.60
2018-02-19T06:01:41.250Z,47.20
2018-02-19T06:04:08.749Z,48.30
2018-02-19T06:06:36.258Z,46.27
2018-02-19T06:09:03.783Z,47.37
2018-02-19T06:11:31.291Z,45.53
2018-02-19T06:13:58.820Z,47.77
2018-02-19T06:16:26.332Z,48.30
2018-02-19T06:18:54.607Z,46.43
2018-02-19T06:21:22.126Z,48.57
2018-02-19T06:23:49.670Z,48.20
2018-02-19T06:26:17.176Z,47.73
2018-02-19T06:28:44.693Z,47.03
2018-02-19T06:31:12.217Z,48.20
2018-02-19T06:33:39.711Z,48.50
2018-02-19T06:36:08.177Z,43.07
2018-02-19T06:38:35.754Z,46.63
2018-02-19T06:41:03.261Z,45.47
2018-02-19T06:43:30.757Z,44.67
2018-02-19T06:45:58.295Z,48.97
2018-02-19T06:48:26.564Z,41.43
2018-02-19T06:50:54.074Z,44.50
2018-02-19T06:53:21.601Z,46.93
2018-02-19T06:55:49.864Z,45.63
2018-02-19T06:58:17.375Z,45.97
2018-02-19T07:00:44.886Z,47.80
2018-02-19T07:03:13.221Z,44.83
2018-02-19T07:05:40.724Z,50.83
2018-02-19T07:08:09.003Z,46.13
2018-02-19T07:10:36.534Z,47.43
2018-02-19T07:13:04.024Z,45.07
2018-02-19T07:15:32.300Z,47.57
2018-02-19T07:17:59.864Z,48.37
2018-02-19T07:20:30.222Z,45.30
2018-02-19T07:22:57.725Z,41.30
2018-02-19T07:25:25.221Z,46.37
2018-02-19T07:27:52.750Z,47.63
2018-02-19T07:30:20.285Z,43.77
2018-02-19T07:32:47.790Z,47.77
2018-02-19T07:35:15.364Z,44.93
2018-02-19T07:37:42.882Z,46.23
2018-02-19T07:40:10.406Z,45.17
2018-02-19T07:42:37.932Z,44.03
2018-02-19T07:45:05.442Z,44.23
2018-02-19T07:47:32.963Z,45.77
2018-02-19T07:50:00.528Z,48.37
2018-02-19T07:52:28.829Z,42.93
2018-02-19T07:54:56.328Z,43.97
2018-02-19T07:57:23.865Z,43.17
2018-02-19T07:59:51.388Z,45.70
2018-02-19T08:02:18.913Z,44.23
2018-02-19T08:04:46.435Z,42.03
2018-02-19T08:07:13.946Z,48.90
2018-02-19T08:09:42.234Z,47.23
2018-02-19T08:12:09.769Z,49.33
2018-02-19T08:14:37.322Z,44.80
2018-02-19T08:17:04.831Z,44.23
2018-02-19T08:19:32.334Z,41.60
2018-02-19T08:21:59.843Z,45.60
2018-02-19T08:24:27.380Z,44.57
2018-02-19T08:26:55.671Z,43.33
2018-02-19T08:29:23.173Z,45.80
2018-02-19T08:31:50.687Z,43.50
2018-02-19T08:34:18.967Z,42.90
2018-02-19T08:36:46.496Z,44.53
2018-02-19T08:39:14.024Z,46.83
2018-02-19T08:41:41.541Z,42.33
2018-02-19T08:44:09.878Z,44.33
2018-02-19T08:46:37.397Z,43.67
2018-02-19T08:49:04.947Z,42.93
2018-02-19T08:51:32.492Z,40.77
2018-02-19T08:54:00.011Z,42.80
2018-02-19T08:56:27.529Z,41.77
2018-02-19T08:58:55.817Z,41.43
2018-02-19T09:01:23.328Z,41.07
2018-02-19T09:03:50.862Z,45.03
2018-02-19T09:06:18.385Z,43.80
2018-02-19T09:08:45.893Z,44.20
2018-02-19T09:11:13.449Z,42.10
2018-02-19T09:13:40.951Z,41.33
2018-02-19T09:16:08.474Z,44.23
2018-02-19T09:18:35.993Z,38.63
2018-02-19T09:21:03.512Z,38.97
2018-02-19T09:23:31.150Z,37.70
2018-02-19T09:25:58.711Z,40.33
2018-02-19T09:28:26.244Z,39.70
2018-02-19T09:30:53.758Z,38.33
2018-02-19T09:33:21.281Z,41.73
2018-02-19T09:35:48.881Z,38.20
2018-02-19T09:38:16.436Z,39.33
2018-02-19T09:40:43.991Z,42.20
2018-02-19T09:43:11.486Z,39.33
2018-02-19T09:45:39.057Z,38.20
2018-02-19T09:48:07.415Z,39.13
2018-02-19T09:50:34.948Z,39.83
2018-02-19T09:53:02.516Z,40.87
2018-02-19T09:55:30.060Z,38.30
2018-02-19T09:57:57.565Z,39.20
2018-02-19T10:00:25.907Z,38.70
2018-02-19T10:02:53.423Z,36.93
2018-02-19T10:05:21.726Z,34.20
2018-02-19T10:07:49.263Z,40.63
2018-02-19T10:10:16.802Z,37.90
2018-02-19T10:12:44.344Z,38.37
2018-02-19T10:15:11.958Z,38.80
2018-02-19T10:17:39.605Z,41.60
2018-02-19T10:20:07.108Z,35.97
2018-02-19T10:22:34.671Z,40.87
2018-02-19T10:25:02.194Z,37.50
2018-02-19T10:27:29.698Z,38.20
2018-02-19T10:29:57.279Z,39.37
2018-02-19T10:32:24.850Z,36.90
2018-02-19T10:34:53.149Z,38.53
2018-02-19T10:37:20.739Z,34.00
2018-02-19T10:39:48.244Z,37.73
2018-02-19T10:42:15.821Z,37.37
2018-02-19T10:44:44.158Z,37.13
2018-02-19T10:47:11.732Z,40.83
2018-02-19T10:49:39.395Z,34.40
2018-02-19T10:52:06.934Z,35.03
2018-02-19T10:54:34.491Z,36.63
2018-02-19T10:57:02.041Z,41.30
2018-02-19T10:59:29.559Z,37.00
2018-02-19T11:01:57.905Z,37.80
2018-02-19T11:04:25.452Z,37.40
2018-02-19T11:06:52.984Z,35.87
2018-02-19T11:09:20.491Z,41.73
2018-02-19T11:11:47.990Z,38.53
2018-02-19T11:14:15.528Z,36.63
2018-02-19T11:16:43.090Z,36.27
2018-02-19T11:19:10.625Z,36.87
2018-02-19T11:21:38.164Z,39.33
2018-02-19T11:24:05.741Z,37.73
2018-02-19T11:26:33.256Z,40.37
2018-02-19T11:29:01.607Z,53.63
2018-02-19T11:31:29.155Z,38.57
2018-02-19T11:33:56.701Z,35.50
2018-02-19T11:36:24.256Z,35.43
2018-02-19T11:38:55.447Z,36.83
2018-02-19T11:41:20.028Z,33.40
2018-02-19T11:43:47.557Z,36.97
2018-02-19T11:46:15.164Z,34.90
2018-02-19T11:48:43.449Z,34.47
2018-02-19T11:51:10.976Z,35.23
2018-02-19T11:53:40.346Z,35.10
2018-02-19T11:56:07.995Z,33.43
2018-02-19T11:58:35.518Z,36.40
2018-02-19T12:01:03.028Z,34.37
2018-02-19T12:03:30.588Z,34.93
2018-02-19T12:05:58.127Z,33.73
2018-02-19T12:08:25.648Z,34.80
2018-02-19T12:10:53.246Z,34.30
2018-02-19T12:13:21.525Z,32.60
2018-02-19T12:15:49.049Z,34.77
2018-02-19T12:18:16.583Z,37.30
2018-02-19T12:20:44.087Z,35.63
2018-02-19T12:23:11.591Z,35.43
2018-02-19T12:25:39.117Z,33.93
2018-02-19T12:28:06.766Z,33.30
2018-02-19T12:30:34.289Z,32.67
2018-02-19T12:33:01.879Z,33.70
2018-02-19T12:35:29.553Z,34.00
2018-02-19T12:37:57.085Z,32.80
2018-02-19T12:40:24.637Z,34.00
2018-02-19T12:42:52.167Z,34.73
2018-02-19T12:45:19.900Z,34.33
2018-02-19T12:47:47.427Z,33.73
2018-02-19T12:50:14.968Z,31.60
2018-02-19T12:52:42.488Z,30.83
2018-02-19T12:55:10.769Z,29.23
2018-02-19T12:57:39.420Z,33.67
2018-02-19T13:00:07.404Z,30.50
2018-02-19T13:02:34.927Z,32.27
2018-02-19T13:05:02.465Z,31.97
2018-02-19T13:07:29.977Z,31.30
2018-02-19T13:09:57.509Z,28.47
2018-02-19T13:12:25.047Z,29.57
2018-02-19T13:14:52.553Z,36.00
2018-02-19T13:17:20.090Z,29.83
2018-02-19T13:19:47.612Z,29.33
2018-02-19T13:22:15.902Z,29.30
2018-02-19T13:24:43.425Z,30.13
2018-02-19T13:27:11.169Z,28.80
2018-02-19T13:29:38.730Z,29.67
2018-02-19T13:32:06.245Z,29.40
2018-02-19T13:34:33.806Z,30.83
2018-02-19T13:37:01.295Z,28.13
2018-02-19T13:39:28.810Z,29.13
2018-02-19T13:41:57.133Z,29.60
2018-02-19T13:44:24.666Z,33.07
2018-02-19T13:46:52.941Z,33.20
2018-02-19T13:49:20.469Z,31.13
2018-02-19T13:51:47.977Z,30.43
2018-02-19T13:54:15.478Z,31.73
2018-02-19T13:56:43.064Z,28.00
2018-02-19T13:59:10.662Z,30.83
2018-02-19T14:01:38.224Z,29.30
2018-02-19T14:04:05.750Z,27.50
2018-02-19T14:06:33.245Z,29.27
2018-02-19T14:09:00.796Z,29.13
2018-02-19T14:11:28.323Z,29.63
2018-02-19T14:13:55.850Z,28.03
2018-02-19T14:16:23.349Z,27.20
2018-02-19T14:18:50.885Z,29.47
2018-02-19T14:21:18.417Z,30.10
2018-02-19T14:23:45.930Z,29.80
2018-02-19T14:26:13.439Z,28.77
2018-02-19T14:28:40.949Z,29.60
2018-02-19T14:31:08.458Z,30.83
2018-02-19T14:33:36.052Z,28.50
2018-02-19T14:36:03.574Z,28.03
2018-02-19T14:38:31.095Z,27.53
2018-02-19T14:40:58.607Z,27.27
2018-02-19T14:43:26.107Z,26.80
2018-02-19T14:45:54.376Z,27.80
2018-02-19T14:48:21.908Z,29.13
2018-02-19T14:50:49.417Z,25.63
2018-02-19T14:53:18.656Z,25.63
2018-02-19T14:55:46.192Z,28.30
2018-02-19T14:58:13.687Z,28.07
2018-02-19T15:00:41.225Z,27.27
2018-02-19T15:03:08.749Z,29.33
2018-02-19T15:05:37.027Z,25.53
2018-02-19T15:08:04.542Z,28.17
2018-02-19T15:10:32.088Z,28.00
2018-02-19T15:12:59.661Z,30.03
2018-02-19T15:15:27.254Z,26.30
2018-02-19T15:17:54.825Z,25.40
2018-02-19T15:20:23.114Z,26.70
2018-02-19T15:22:50.658Z,26.33
2018-02-19T15:25:18.187Z,28.27
2018-02-19T15:27:45.708Z,28.70
2018-02-19T15:30:14.013Z,25.53
2018-02-19T15:32:41.533Z,27.67
2018-02-19T15:35:09.045Z,26.63
2018-02-19T15:37:36.553Z,26.17
2018-02-19T15:40:04.140Z,28.20
2018-02-19T15:42:33.803Z,25.47
2018-02-19T15:45:01.359Z,28.23
2018-02-19T15:47:29.719Z,23.83
2018-02-19T15:49:57.295Z,30.53
2018-02-19T15:52:24.820Z,22.93
2018-02-19T15:54:52.354Z,28.07
2018-02-19T15:57:19.903Z,26.33
2018-02-19T15:59:49.342Z,27.93
2018-02-19T16:02:16.888Z,26.10
2018-02-19T16:04:44.430Z,26.27
2018-02-19T16:07:12.011Z,28.67
2018-02-19T16:09:40.294Z,28.83
2018-02-19T16:12:07.825Z,28.30
2018-02-19T16:14:36.149Z,29.60
2018-02-19T16:17:04.514Z,28.10
2018-02-19T16:19:32.087Z,26.47
2018-02-19T16:21:59.913Z,29.80
2018-02-19T16:24:28.214Z,27.70
2018-02-19T16:26:55.775Z,29.93
2018-02-19T16:29:23.585Z,28.17
2018-02-19T16:31:51.114Z,27.37
2018-02-19T16:34:18.705Z,30.57
2018-02-19T16:36:46.212Z,27.63
2018-02-19T16:39:14.512Z,27.67
2018-02-19T16:41:42.025Z,26.23
2018-02-19T16:44:09.551Z,27.73
2018-02-19T16:46:37.045Z,30.43
2018-02-19T16:49:04.547Z,28.03
2018-02-19T16:51:32.067Z,29.63
2018-02-19T16:53:59.621Z,26.97
2018-02-19T16:56:27.140Z,29.37
2018-02-19T16:58:54.641Z,26.97
2018-02-19T17:01:22.201Z,27.53
2018-02-19T17:03:49.674Z,29.27
2018-02-19T17:06:17.236Z,30.63
2018-02-19T17:08:45.723Z,27.90
2018-02-19T17:11:13.270Z,26.73
2018-02-19T17:13:40.768Z,28.60
2018-02-19T17:16:08.277Z,30.33
2018-02-19T17:18:35.786Z,26.97
2018-02-19T17:21:03.274Z,26.67
2018-02-19T17:23:30.766Z,28.30
2018-02-19T17:25:58.295Z,30.40
2018-02-19T17:28:25.780Z,28.33
2018-02-19T17:30:53.298Z,29.33
2018-02-19T17:33:20.810Z,28.13
2018-02-19T17:35:51.789Z,28.07
2018-02-19T17:38:19.308Z,29.70
2018-02-19T17:40:46.825Z,27.50
2018-02-19T17:43:14.321Z,28.30
2018-02-19T17:45:41.810Z,30.77
2018-02-19T17:48:10.070Z,35.33
2018-02-19T17:50:37.594Z,31.63
2018-02-19T17:53:05.117Z,31.57
2018-02-19T17:55:32.666Z,30.77
2018-02-19T17:58:00.206Z,29.93
2018-02-19T18:00:27.746Z,33.87
2018-02-19T18:02:55.254Z,34.03
2018-02-19T18:05:23.543Z,31.23
2018-02-19T18:07:51.092Z,37.37
2018-02-19T18:10:18.598Z,32.90
2018-02-19T18:12:46.118Z,32.10
2018-02-19T18:15:13.682Z,40.20
2018-02-19T18:17:42.070Z,30.87
2018-02-19T18:20:10.443Z,30.13
2018-02-19T18:22:38.781Z,29.87
2018-02-19T18:25:06.310Z,33.33
2018-02-19T18:27:33.826Z,28.87
2018-02-19T18:30:02.272Z,31.87
2018-02-19T18:32:29.781Z,30.43
2018-02-19T18:34:57.286Z,30.47
2018-02-19T18:37:25.008Z,33.90
2018-02-19T18:39:52.505Z,32.63
2018-02-19T18:42:20.028Z,29.87
2018-02-19T18:44:47.566Z,29.50
2018-02-19T18:47:15.106Z,30.83
2018-02-19T18:49:44.230Z,33.27
2018-02-19T18:52:12.570Z,33.30
2018-02-19T18:54:40.062Z,32.00
2018-02-19T18:57:08.423Z,30.23
2018-02-19T18:59:35.917Z,32.43
2018-02-19T19:02:04.222Z,33.53
2018-02-19T19:04:31.735Z,30.17
2018-02-19T19:06:59.262Z,37.10
2018-02-19T19:09:38.674Z,32.47
2018-02-19T19:12:06.205Z,32.13
2018-02-19T19:14:33.700Z,30.73
2018-02-19T19:17:01.229Z,31.47
2018-02-19T19:19:28.721Z,32.60
2018-02-19T19:21:56.975Z,30.13
2018-02-19T19:24:25.291Z,32.47
2018-02-19T19:26:52.839Z,32.53
2018-02-19T19:29:20.339Z,29.00
2018-02-19T19:31:47.885Z,30.97
2018-02-19T19:34:15.439Z,30.30
2018-02-19T19:36:42.945Z,29.97
2018-02-19T19:39:10.449Z,30.10
2018-02-19T19:41:37.970Z,32.17
2018-02-19T19:44:06.283Z,30.97
2018-02-19T19:46:33.896Z,33.87
2018-02-19T19:49:02.233Z,32.73
2018-02-19T19:51:29.740Z,32.73
2018-02-19T19:53:58.000Z,31.97
2018-02-19T19:56:25.524Z,33.87
2018-02-19T19:58:53.029Z,32.90
2018-02-19T20:01:20.534Z,33.63
2018-02-19T20:03:48.095Z,35.00
2018-02-19T20:06:15.622Z,32.53
2018-02-19T20:08:43.176Z,34.10
2018-02-19T20:11:11.449Z,36.60
2018-02-19T20:13:39.010Z,37.33
2018-02-19T20:16:06.525Z,34.97
2018-02-19T20:18:34.048Z,34.47
2018-02-19T20:21:02.350Z,33.63
2018-02-19T20:23:30.518Z,34.93
2018-02-19T20:25:58.058Z,37.30
2018-02-19T20:28:26.412Z,34.60
2018-02-19T20:30:54.010Z,35.63
2018-02-19T20:33:21.587Z,38.40
2018-02-19T20:35:49.266Z,34.63
2018-02-19T20:38:17.013Z,36.80
2018-02-19T20:40:44.554Z,34.27
2018-02-19T20:43:12.102Z,38.17
2018-02-19T20:45:40.464Z,39.23
2018-02-19T20:48:07.969Z,37.97
2018-02-19T20:50:35.475Z,35.50
2018-02-19T20:53:03.031Z,38.97
2018-02-19T20:55:30.543Z,35.53
2018-02-19T20:57:58.195Z,34.27
2018-02-19T21:00:26.835Z,37.33
2018-02-19T21:02:55.460Z,38.73
2018-02-19T21:05:23.030Z,35.30
2018-02-19T21:07:51.365Z,35.63
2018-02-19T21:10:18.942Z,40.97
2018-02-19T21:12:46.614Z,40.33
2018-02-19T21:15:14.227Z,42.07
2018-02-19T21:17:41.810Z,43.27
2018-02-19T21:20:10.314Z,39.37
2018-02-19T21:22:37.892Z,40.40
2018-02-19T21:25:05.428Z,37.43
2018-02-19T21:27:32.955Z,39.47
2018-02-19T21:30:00.515Z,46.37
2018-02-19T21:32:28.023Z,37.90
2018-02-19T21:34:55.591Z,39.37
2018-02-19T21:37:23.118Z,39.13
2018-02-19T21:39:50.633Z,42.23
2018-02-19T21:42:18.183Z,38.87
2018-02-19T21:44:46.471Z,37.87
2018-02-19T21:47:14.769Z,41.40
2018-02-19T21:49:43.244Z,40.50
2018-02-19T21:52:10.773Z,40.73
2018-02-19T21:54:38.278Z,40.53
2018-02-19T21:57:06.588Z,41.17
2018-02-19T21:59:34.129Z,41.77
2018-02-19T22:02:02.402Z,40.73
2018-02-19T22:04:29.934Z,41.73
2018-02-19T22:06:57.559Z,40.63
2018-02-19T22:09:25.070Z,40.77
2018-02-19T22:11:52.763Z,41.53
2018-02-19T22:14:20.283Z,44.33
2018-02-19T22:16:47.828Z,39.53
2018-02-19T22:19:15.360Z,38.30
2018-02-19T22:21:42.861Z,38.53
2018-02-19T22:24:10.403Z,38.97
2018-02-19T22:26:37.981Z,43.50
2018-02-19T22:29:06.248Z,39.47
2018-02-19T22:31:33.757Z,37.80
2018-02-19T22:34:01.300Z,41.83
2018-02-19T22:36:28.833Z,40.17
2018-02-19T22:38:57.110Z,38.90
2018-02-19T22:41:24.629Z,38.37
2018-02-19T22:43:52.131Z,43.40
2018-02-19T22:46:20.454Z,39.60
2018-02-19T22:48:47.989Z,41.77
2018-02-19T22:51:15.496Z,38.37
2018-02-19T22:53:43.035Z,39.40
2018-02-19T22:56:10.599Z,38.63
2018-02-19T22:58:38.329Z,39.47
2018-02-19T23:01:05.811Z,41.07
2018-02-19T23:03:33.344Z,38.47
2018-02-19T23:06:01.648Z,38.37
2018-02-19T23:08:29.954Z,40.17
2018-02-19T23:10:57.480Z,39.50
2018-02-19T23:13:25.092Z,38.80
2018-02-19T23:15:52.631Z,38.77
2018-02-19T23:18:20.145Z,43.50
2018-02-19T23:20:47.657Z,39.03
2018-02-19T23:23:15.152Z,40.27
2018-02-19T23:25:43.442Z,42.27
2018-02-19T23:28:10.974Z,39.87
2018-02-19T23:30:38.514Z,39.00
2018-02-19T23:33:06.023Z,37.77
2018-02-19T23:35:33.685Z,42.23
2018-02-19T23:38:01.198Z,37.70
2018-02-19T23:40:28.707Z,41.93
2018-02-19T23:42:56.240Z,38.63
2018-02-19T23:45:24.525Z,44.53
2018-02-19T23:47:52.805Z,39.60
2018-02-19T23:50:20.361Z,41.80
2018-02-19T23:52:47.858Z,40.97
2018-02-19T23:55:15.405Z,40.20
2018-02-19T23:57:42.921Z,41.93
